Old Greenwich, Connecticut
Current Conditions -  °F | °C
As of 7:56 PM on Friday 24 Oct 2014 (Local Time) from KHPN Reporting Station
Clear Clear  
Wind Chill: 49°   Ceiling: Unl
Heat Index: 49°   Visibility: 10mi
Dew Point: 45°   Wind: 3mph
Humidity: 86%   Direction: 220°SW
Pressure: 29.8"   Gusts: NA
Location:  41.02°N, 73.57°W
Report Text: KHPN 242356Z 22003KT 10SM CLR 09/07 A2980 RMK AO2 SLP091 T00940072 10139 20089 53008
Loading
Personal Weather Stations






























Interactive Weather Map
Tropical Storm Tracking
New forecast layout! Learn more

10-Day Weather Forecast

Advertisements
Track Severe Weather on mobile